Time;durP1;ratioP1;P1;durP2;ratioP2;P2;SDS_P1;SDS_P2;PMS_P1;PMS_P2;Temp;Humidity;BMP_temperature;BMP_pressure;BME280_temperature;BME280_humidity;BME280_pressure;Samples;Min_cycle;Max_cycle;Signal;HPM_P1;HPM_P2
2021/08/28 00:02:25;;;;;;;10.28;7.45;;;;;;;12.53;91.37;97599.52;1702029;83;20981;-73
2021/08/28 00:04:52;;;;;;;9.53;7.05;;;;;;;12.52;91.40;97603.13;1732326;82;21032;-73
2021/08/28 00:07:19;;;;;;;10.23;7.30;;;;;;;12.51;91.42;97597.87;1699626;83;21017;-73
2021/08/28 00:09:46;;;;;;;15.53;7.28;;;;;;;12.51;91.61;97597.38;1723585;82;21016;-73
2021/08/28 00:12:12;;;;;;;11.75;8.38;;;;;;;12.55;92.12;97603.45;1708982;83;20994;-73
2021/08/28 00:14:38;;;;;;;15.88;8.58;;;;;;;12.64;92.66;97604.83;1712361;83;21030;-74
2021/08/28 00:17:05;;;;;;;12.90;8.60;;;;;;;12.71;92.02;97608.92;1706768;82;21063;-74
2021/08/28 00:19:32;;;;;;;12.80;8.18;;;;;;;12.72;91.44;97616.45;1706109;83;21032;-74
2021/08/28 00:21:58;;;;;;;13.43;8.78;;;;;;;12.73;92.01;97607.08;1706688;84;20975;-74
2021/08/28 00:24:25;;;;;;;13.78;8.88;;;;;;;12.78;91.95;97606.86;1708083;84;21414;-74
2021/08/28 00:26:53;;;;;;;12.15;9.18;;;;;;;12.81;92.02;97609.39;1736464;82;20917;-74
2021/08/28 00:29:19;;;;;;;13.60;8.90;;;;;;;12.84;91.64;97609.27;1749505;82;21064;-74
2021/08/28 00:31:46;;;;;;;15.25;9.20;;;;;;;12.83;91.22;97614.16;1738221;82;21045;-74
2021/08/28 00:34:13;;;;;;;13.13;10.08;;;;;;;12.82;91.50;97611.60;1739741;82;21474;-74
2021/08/28 00:36:40;;;;;;;18.37;11.57;;;;;;;12.84;91.83;97614.59;1733447;81;21029;-74
2021/08/28 00:39:07;;;;;;;18.37;10.50;;;;;;;12.82;91.70;97616.44;1739647;82;21491;-74
2021/08/28 00:41:33;;;;;;;15.50;10.20;;;;;;;12.77;92.16;97614.00;1739774;82;21022;-75
2021/08/28 00:44:01;;;;;;;13.08;8.63;;;;;;;12.73;92.49;97625.70;1739623;81;21045;-75
2021/08/28 00:46:27;;;;;;;15.23;9.05;;;;;;;12.70;92.95;97619.17;1734463;82;21028;-74
2021/08/28 00:48:54;;;;;;;16.57;9.90;;;;;;;12.68;92.39;97621.05;1723269;82;20989;-74
2021/08/28 00:51:21;;;;;;;14.28;8.50;;;;;;;12.67;92.72;97618.84;1722235;82;20981;-75
2021/08/28 00:53:47;;;;;;;12.68;9.55;;;;;;;12.64;91.92;97618.13;1721993;83;21446;-74
2021/08/28 00:56:16;;;;;;;18.48;10.00;;;;;;;12.62;91.91;97622.17;1725177;82;20947;-74
2021/08/28 00:58:42;;;;;;;15.55;10.18;;;;;;;12.61;91.95;97627.09;1739921;82;21436;-74
2021/08/28 01:01:16;;;;;;;14.83;11.25;;;;;;;12.57;92.58;97624.66;1739778;81;20989;-74
2021/08/28 01:03:45;;;;;;;;;;;;;;;12.54;92.55;97627.83;1742584;81;21006;-75
2021/08/28 01:06:49;;;;;;;21.82;13.98;;;;;;;12.52;92.92;97623.06;1737174;82;20165;-74
2021/08/28 01:09:29;;;;;;;23.45;14.50;;;;;;;12.50;92.73;97628.04;1656499;83;21663;-75
2021/08/28 01:12:12;;;;;;;19.77;13.50;;;;;;;12.48;94.18;97632.09;1699769;84;21001;-75
2021/08/28 01:14:45;;;;;;;20.90;13.30;;;;;;;12.49;93.18;97632.93;1706807;83;21014;-75
2021/08/28 01:17:15;;;;;;;19.87;13.13;;;;;;;12.50;92.99;97626.23;1757430;82;20992;-75
2021/08/28 01:19:50;;;;;;;20.85;13.80;;;;;;;12.56;92.66;97630.42;1735967;83;21013;-75
2021/08/28 01:22:20;;;;;;;25.15;13.18;;;;;;;12.62;92.57;97634.14;1720198;83;21474;-74
2021/08/28 01:25:06;;;;;;;20.12;12.90;;;;;;;12.66;92.64;97630.41;1714830;83;21050;-75
2021/08/28 01:28:08;;;;;;;19.32;12.10;;;;;;;12.71;92.63;97627.54;1670258;86;21459;-74
2021/08/28 01:30:40;;;;;;;17.20;12.07;;;;;;;12.75;92.78;97621.64;1682678;85;21029;-75
2021/08/28 01:33:10;;;;;;;18.48;11.55;;;;;;;12.80;93.18;97625.80;1694348;85;21387;-75
2021/08/28 01:35:37;;;;;;;15.63;11.05;;;;;;;12.83;92.61;97628.79;1717562;81;21074;-75
2021/08/28 01:38:05;;;;;;;15.40;10.38;;;;;;;12.85;93.64;97626.95;1757350;82;20996;-74
2021/08/28 01:40:35;;;;;;;17.70;10.95;;;;;;;12.92;93.02;97625.72;1750545;82;21048;-75
2021/08/28 01:43:02;;;;;;;13.93;10.38;;;;;;;12.99;92.73;97617.48;1735724;83;21038;-75
2021/08/28 01:45:29;;;;;;;16.95;10.10;;;;;;;13.03;92.82;97621.25;1741796;82;21477;-75
2021/08/28 01:47:58;;;;;;;18.82;10.20;;;;;;;13.11;92.72;97618.69;1725987;83;20965;-74
2021/08/28 01:50:25;;;;;;;15.40;8.65;;;;;;;13.17;92.48;97622.42;1726245;83;21023;-74
2021/08/28 01:52:53;;;;;;;16.48;9.00;;;;;;;13.17;91.98;97617.10;1725523;83;21039;-74
2021/08/28 01:55:22;;;;;;;10.55;7.72;;;;;;;13.11;91.81;97623.56;1734749;82;21494;-74
2021/08/28 01:57:50;;;;;;;13.22;9.08;;;;;;;13.05;91.91;97618.53;1752100;82;20985;-74
2021/08/28 02:00:28;;;;;;;13.20;8.40;;;;;;;13.04;92.10;97611.48;1677631;85;21096;-75
2021/08/28 02:02:54;;;;;;;12.00;7.20;;;;;;;13.07;92.19;97616.20;1754079;82;21005;-74
2021/08/28 02:05:21;;;;;;;12.78;8.35;;;;;;;13.05;91.33;97611.39;1740062;82;21456;-74
2021/08/28 02:07:58;;;;;;;11.25;8.05;;;;;;;13.02;91.34;97611.55;1718341;83;21048;-75
2021/08/28 02:10:33;;;;;;;14.58;8.23;;;;;;;13.01;91.37;97607.17;1720237;83;21029;-75
2021/08/28 02:13:05;;;;;;;13.48;7.53;;;;;;;12.96;91.37;97607.85;1720741;83;21533;-75
2021/08/28 02:15:38;;;;;;;10.88;7.95;;;;;;;12.94;91.41;97613.23;1736447;82;21051;-75
2021/08/28 02:18:13;;;;;;;12.58;8.08;;;;;;;12.94;91.36;97611.91;1753932;82;21024;-75
2021/08/28 02:20:47;;;;;;;11.53;8.25;;;;;;;12.92;91.07;97614.24;1732678;82;21052;-74
2021/08/28 02:23:21;;;;;;;13.60;8.40;;;;;;;12.89;91.04;97623.22;1747163;82;21433;-74
2021/08/28 02:26:00;;;;;;;14.87;7.78;;;;;;;12.87;91.26;97616.25;1705477;83;21437;-74
2021/08/28 02:28:35;;;;;;;11.80;8.55;;;;;;;12.87;91.30;97620.23;1720798;83;21063;-74
2021/08/28 02:31:04;;;;;;;12.15;8.63;;;;;;;12.86;91.46;97617.16;1720918;83;21020;-74
2021/08/28 02:33:36;;;;;;;11.88;8.30;;;;;;;12.86;91.35;97619.36;1729851;80;21020;-75
2021/08/28 02:36:04;;;;;;;12.80;8.85;;;;;;;12.81;90.76;97620.03;1726165;82;20984;-75
2021/08/28 02:38:31;;;;;;;12.88;8.90;;;;;;;12.74;90.56;97614.13;1753870;81;21028;-75
2021/08/28 02:41:02;;;;;;;14.55;8.78;;;;;;;12.73;91.05;97618.17;1753792;82;21008;-74
2021/08/28 02:43:30;;;;;;;13.28;8.53;;;;;;;12.71;90.82;97606.75;1744688;82;21004;-74
2021/08/28 02:46:00;;;;;;;15.98;10.15;;;;;;;12.68;91.26;97610.41;1720876;83;21008;-74
2021/08/28 02:48:30;;;;;;;17.23;10.72;;;;;;;12.64;91.02;97616.34;1720273;82;21079;-74
2021/08/28 02:51:02;;;;;;;24.43;12.55;;;;;;;12.61;91.95;97610.27;1692122;83;21033;-74
2021/08/28 02:53:31;;;;;;;19.77;12.40;;;;;;;12.57;91.49;97618.85;1728296;82;21042;-74
2021/08/28 02:55:59;;;;;;;17.52;12.18;;;;;;;12.52;91.31;97619.07;1753778;82;20988;-74
2021/08/28 02:58:28;;;;;;;19.50;12.45;;;;;;;12.52;91.27;97616.86;1742784;82;20965;-74
2021/08/28 03:00:57;;;;;;;17.40;12.03;;;;;;;12.54;91.38;97624.30;1687782;83;21004;-74
2021/08/28 03:03:25;;;;;;;18.65;12.98;;;;;;;12.54;91.64;97622.51;1720790;83;21024;-74
2021/08/28 03:05:53;;;;;;;19.30;12.05;;;;;;;12.55;91.46;97623.39;1720859;83;21004;-74
2021/08/28 03:08:22;;;;;;;17.48;11.83;;;;;;;12.57;92.60;97624.66;1697061;82;21000;-74
2021/08/28 03:10:52;;;;;;;17.52;12.13;;;;;;;12.60;92.45;97629.81;1755455;82;21012;-74
2021/08/28 03:13:21;;;;;;;22.17;12.98;;;;;;;12.57;92.95;97632.63;1717051;82;20996;-74
2021/08/28 03:15:50;;;;;;;18.48;11.55;;;;;;;12.59;93.26;97632.09;1724710;83;20977;-74
2021/08/28 03:18:21;;;;;;;19.17;11.73;;;;;;;12.62;93.57;97634.62;1732200;82;21040;-74
2021/08/28 03:20:53;;;;;;;16.62;11.00;;;;;;;12.67;93.10;97627.30;1756997;82;21378;-74
2021/08/28 03:23:24;;;;;;;16.75;11.35;;;;;;;12.70;93.00;97633.80;1757018;82;21033;-74
2021/08/28 03:25:53;;;;;;;13.50;9.70;;;;;;;12.75;93.33;97636.27;1756875;82;20997;-74
2021/08/28 03:28:20;;;;;;;16.80;10.00;;;;;;;12.83;93.15;97639.43;1727793;82;21041;-74
2021/08/28 03:30:48;;;;;;;18.32;9.88;;;;;;;12.89;92.90;97643.63;1728051;82;21043;-74
2021/08/28 03:33:18;;;;;;;12.73;9.70;;;;;;;12.94;92.97;97637.63;1726309;82;21052;-74
2021/08/28 03:35:49;;;;;;;15.78;9.50;;;;;;;13.01;92.60;97640.88;1725026;83;21465;-74
2021/08/28 03:38:17;;;;;;;13.62;9.10;;;;;;;13.06;92.47;97640.20;1726147;83;21067;-74
2021/08/28 03:40:45;;;;;;;15.28;9.80;;;;;;;13.10;92.11;97643.58;1753254;82;20945;-74
2021/08/28 03:43:12;;;;;;;14.20;9.63;;;;;;;13.14;92.26;97648.70;1756813;82;21004;-74
2021/08/28 03:45:39;;;;;;;19.70;9.83;;;;;;;13.21;92.26;97658.61;1757177;81;21035;-73
2021/08/28 03:48:06;;;;;;;18.40;9.60;;;;;;;13.24;91.82;97653.13;1757010;82;20976;-73
2021/08/28 03:50:34;;;;;;;13.00;9.23;;;;;;;13.24;91.85;97650.95;1731902;82;21004;-74
2021/08/28 03:53:02;;;;;;;14.93;10.15;;;;;;;13.26;91.95;97652.61;1726275;83;21043;-74
2021/08/28 03:55:29;;;;;;;15.23;9.35;;;;;;;13.32;92.20;97652.31;1698398;82;21044;-75
2021/08/28 03:57:57;;;;;;;15.65;9.33;;;;;;;13.36;91.82;97660.17;1724665;82;21449;-75
2021/08/28 04:00:24;;;;;;;17.32;10.43;;;;;;;13.36;91.08;97659.68;1747154;82;21036;-74
2021/08/28 04:02:52;;;;;;;16.97;9.93;;;;;;;13.31;91.21;97661.23;1756847;82;21067;-74
2021/08/28 04:05:20;;;;;;;16.93;9.15;;;;;;;13.29;91.24;97664.91;1756955;82;20986;-74
2021/08/28 04:07:47;;;;;;;13.93;9.08;;;;;;;13.23;91.08;97668.70;1757017;82;21003;-74
2021/08/28 04:10:13;;;;;;;15.83;9.28;;;;;;;13.14;90.87;97664.67;1749610;82;21016;-74
2021/08/28 04:12:41;;;;;;;11.18;7.22;;;;;;;13.05;91.24;97665.93;1726322;82;21013;-74
2021/08/28 04:15:11;;;;;;;13.05;7.78;;;;;;;13.00;90.60;97663.94;1720865;83;21016;-74
2021/08/28 04:17:56;;;;;;;8.53;6.40;;;;;;;12.94;90.30;97658.91;1720748;83;21024;-74
2021/08/28 04:20:24;;;;;;;9.85;5.85;;;;;;;12.89;89.99;97660.91;1743382;82;20970;-74
2021/08/28 04:22:51;;;;;;;9.75;6.25;;;;;;;12.86;89.92;97667.23;1753869;82;21039;-73
2021/08/28 04:25:36;;;;;;;6.62;5.20;;;;;;;12.83;89.72;97670.50;1753336;82;21458;-74
2021/08/28 04:28:05;;;;;;;7.85;4.97;;;;;;;12.80;89.93;97663.03;1753181;82;20984;-74
2021/08/28 04:30:33;;;;;;;7.12;4.15;;;;;;;12.80;89.75;97663.03;1729282;82;21422;-73
2021/08/28 04:32:59;;;;;;;8.13;4.03;;;;;;;12.77;88.93;97667.17;1720983;83;21016;-73
2021/08/28 04:35:27;;;;;;;6.33;4.10;;;;;;;12.72;88.60;97661.20;1720943;83;21059;-74
2021/08/28 04:37:53;;;;;;;6.90;4.50;;;;;;;12.71;88.58;97669.23;1720669;83;21024;-74
2021/08/28 04:40:20;;;;;;;7.15;3.77;;;;;;;12.65;87.86;97666.38;1742020;82;21450;-73
2021/08/28 04:42:47;;;;;;;5.90;4.00;;;;;;;12.62;88.18;97664.70;1721819;82;21008;-74
2021/08/28 04:45:15;;;;;;;4.58;3.75;;;;;;;12.61;88.21;97658.12;1753477;82;21012;-74
2021/08/28 04:47:52;;;;;;;8.13;4.30;;;;;;;12.60;88.11;97655.95;1751125;82;21017;-74
2021/08/28 04:50:19;;;;;;;6.12;3.50;;;;;;;12.57;87.48;97656.07;1733513;82;20953;-74
2021/08/28 04:52:45;;;;;;;4.72;3.47;;;;;;;12.52;87.23;97660.72;1720805;83;21012;-74
2021/08/28 04:55:12;;;;;;;6.58;3.25;;;;;;;12.53;87.10;97667.77;1720804;83;21021;-74
2021/08/28 04:57:38;;;;;;;12.53;8.08;;;;;;;12.52;86.98;97669.57;1691945;83;20997;-74
2021/08/28 05:00:06;;;;;;;7.10;4.05;;;;;;;12.55;87.14;97673.89;1737293;82;20976;-73
2021/08/28 05:02:51;;;;;;;7.87;5.33;;;;;;;12.58;86.99;97676.88;1723353;82;21561;-74
2021/08/28 05:05:17;;;;;;;4.78;3.05;;;;;;;12.61;87.01;97676.28;1720896;83;21043;-74
2021/08/28 05:07:44;;;;;;;5.58;3.50;;;;;;;12.69;87.20;97675.95;1720830;83;21064;-74
2021/08/28 05:10:11;;;;;;;5.40;2.70;;;;;;;12.75;86.90;97678.33;1738171;82;20972;-74
2021/08/28 05:12:38;;;;;;;4.87;2.98;;;;;;;12.76;85.04;97679.20;1753771;82;21400;-74
2021/08/28 05:15:08;;;;;;;4.10;2.80;;;;;;;12.78;84.75;97685.30;1753352;82;21041;-74
2021/08/28 05:17:37;;;;;;;4.53;2.47;;;;;;;12.77;83.73;97685.80;1752863;82;21012;-74
2021/08/28 05:20:06;;;;;;;4.30;2.58;;;;;;;12.85;84.43;97684.58;1738441;82;20933;-74
2021/08/28 05:22:35;;;;;;;4.15;2.87;;;;;;;12.85;83.84;97678.80;1717710;83;20996;-73
2021/08/28 05:25:10;;;;;;;4.60;2.60;;;;;;;12.82;82.96;97678.93;1663836;83;21394;-74
2021/08/28 05:27:37;;;;;;;5.45;2.85;;;;;;;12.85;83.81;97684.58;1725221;82;21031;-74
2021/08/28 05:30:06;;;;;;;4.60;2.58;;;;;;;12.88;83.74;97679.98;1753870;82;20977;-74
2021/08/28 05:32:32;;;;;;;3.05;2.60;;;;;;;12.91;82.37;97682.97;1753867;82;21016;-74
2021/08/28 05:34:59;;;;;;;5.30;2.90;;;;;;;12.88;82.01;97685.30;1753888;81;21005;-74
2021/08/28 05:37:43;;;;;;;5.92;3.02;;;;;;;12.85;81.83;97681.92;1748267;82;21001;-74
2021/08/28 05:40:13;;;;;;;6.87;3.42;;;;;;;12.88;82.85;97679.13;1719320;83;21481;-73
2021/08/28 05:42:41;;;;;;;7.90;3.35;;;;;;;12.91;83.25;97681.64;1720885;83;21000;-73
2021/08/28 05:45:10;;;;;;;5.42;3.35;;;;;;;12.91;83.29;97674.98;1721058;82;21028;-74
2021/08/28 05:47:36;;;;;;;4.25;3.27;;;;;;;12.89;82.79;97679.08;1723799;82;21016;-74
2021/08/28 05:50:04;;;;;;;4.37;2.92;;;;;;;12.87;83.14;97674.27;1753985;81;21020;-74
2021/08/28 05:52:32;;;;;;;3.77;2.90;;;;;;;12.90;82.78;97679.92;1753887;82;21003;-73
2021/08/28 05:54:58;;;;;;;4.42;3.40;;;;;;;12.91;82.75;97681.64;1753724;82;21016;-74
2021/08/28 05:57:25;;;;;;;4.92;3.87;;;;;;;13.00;82.67;97681.72;1753519;82;20973;-74
2021/08/28 05:59:52;;;;;;;5.50;3.25;;;;;;;13.07;82.54;97680.05;1721016;83;21036;-74
2021/08/28 06:02:18;;;;;;;7.05;4.92;;;;;;;13.14;82.49;97673.98;1720668;83;21099;-74
2021/08/28 06:04:46;;;;;;;5.58;4.20;;;;;;;13.24;82.75;97670.91;1720943;83;21028;-74
2021/08/28 06:07:12;;;;;;;7.05;4.22;;;;;;;13.35;82.13;97672.59;1720952;83;21039;-74
2021/08/28 06:09:51;;;;;;;7.45;4.58;;;;;;;13.45;81.82;97667.24;1753231;82;21437;-74
2021/08/28 06:12:37;;;;;;;7.42;4.55;;;;;;;13.53;81.55;97672.23;1756563;82;21032;-74
2021/08/28 06:15:22;;;;;;;8.88;5.83;;;;;;;13.61;81.17;97670.55;1757159;82;21073;-74
2021/08/28 06:17:53;;;;;;;10.68;6.30;;;;;;;13.71;81.55;97666.99;1751038;82;21012;-74
2021/08/28 06:20:20;;;;;;;12.10;6.70;;;;;;;13.83;81.59;97675.70;1726299;83;21418;-74
2021/08/28 06:22:46;;;;;;;9.40;6.40;;;;;;;13.94;81.84;97676.98;1726146;82;21015;-74
2021/08/28 06:25:14;;;;;;;13.60;6.62;;;;;;;14.06;81.92;97670.20;1699369;83;21040;-74
2021/08/28 06:27:40;;;;;;;9.33;6.45;;;;;;;14.15;81.61;97670.23;1728127;82;21402;-74
2021/08/28 06:30:10;;;;;;;12.18;7.08;;;;;;;14.23;81.73;97680.02;1756587;82;21020;-74
2021/08/28 06:32:37;;;;;;;9.25;6.45;;;;;;;14.33;81.73;97684.45;1757054;82;21445;-74
2021/08/28 06:35:04;;;;;;;10.13;6.97;;;;;;;14.45;81.98;97690.97;1752786;82;20976;-75
2021/08/28 06:37:33;;;;;;;11.35;6.05;;;;;;;14.55;80.84;97694.02;1725583;83;21024;-74
2021/08/28 06:40:16;;;;;;;8.23;5.58;;;;;;;14.60;79.47;97691.52;1721791;83;21493;-74
2021/08/28 06:43:01;;;;;;;;;;;;;;;14.64;80.29;97687.76;1728835;82;21016;-74
2021/08/28 06:45:46;;;;;;;9.65;6.05;;;;;;;14.64;79.60;97682.42;1739037;82;20079;-74
2021/08/28 06:48:14;;;;;;;8.35;5.87;;;;;;;14.61;78.69;97681.23;1726484;81;21040;-74
2021/08/28 06:50:59;;;;;;;8.88;5.58;;;;;;;14.58;79.42;97671.20;1756994;82;21075;-74
2021/08/28 06:53:44;;;;;;;9.88;5.67;;;;;;;14.55;78.86;97667.34;1756999;82;20989;-74
2021/08/28 06:56:17;;;;;;;10.72;5.35;;;;;;;14.53;79.41;97674.09;1680656;84;21012;-74
2021/08/28 06:58:48;;;;;;;8.28;5.50;;;;;;;14.49;79.62;97682.72;1707505;84;21025;-74
2021/08/28 07:01:16;;;;;;;8.40;6.20;;;;;;;14.46;79.38;97687.36;1710337;84;21009;-74
2021/08/28 07:04:00;;;;;;;7.20;5.73;;;;;;;14.51;79.75;97659.98;1707189;84;21052;-74
2021/08/28 07:06:29;;;;;;;9.88;6.33;;;;;;;14.58;80.18;97662.71;1739037;82;21008;-73
2021/08/28 07:08:56;;;;;;;11.20;6.87;;;;;;;14.68;79.94;97671.58;1757112;82;21004;-74
2021/08/28 07:11:22;;;;;;;9.68;5.53;;;;;;;14.72;80.34;97670.48;1757008;82;21403;-74
2021/08/28 07:13:49;;;;;;;7.37;5.28;;;;;;;14.83;79.93;97676.63;1748759;82;20996;-74
2021/08/28 07:16:15;;;;;;;8.40;5.60;;;;;;;14.94;79.94;97676.92;1726388;82;21044;-74
2021/08/28 07:18:41;;;;;;;10.05;6.15;;;;;;;15.08;79.74;97682.02;1725426;83;21342;-74
2021/08/28 07:21:09;;;;;;;7.95;5.45;;;;;;;15.21;80.31;97669.74;1726239;82;21027;-73
2021/08/28 07:23:37;;;;;;;7.85;6.10;;;;;;;15.31;80.06;97662.08;1731214;82;21000;-74
2021/08/28 07:26:08;;;;;;;9.75;5.40;;;;;;;15.52;80.28;97661.39;1750269;82;21008;-74
2021/08/28 07:28:35;;;;;;;11.12;6.28;;;;;;;15.69;80.22;97663.58;1756965;82;21008;-74
2021/08/28 07:31:20;;;;;;;7.70;5.62;;;;;;;15.76;78.56;97666.31;1756915;82;20993;-74
2021/08/28 07:33:49;;;;;;;8.18;5.65;;;;;;;15.80;78.25;97673.22;1751505;82;21453;-74
2021/08/28 07:36:15;;;;;;;9.55;5.78;;;;;;;15.92;78.33;97670.79;1756781;82;21449;-74
2021/08/28 07:38:43;;;;;;;17.98;11.45;;;;;;;15.98;77.19;97675.81;1757074;82;20972;-74
2021/08/28 07:41:09;;;;;;;9.85;6.12;;;;;;;16.02;77.46;97681.38;1756849;82;20965;-75
2021/08/28 07:43:36;;;;;;;9.20;6.20;;;;;;;16.11;77.36;97681.31;1731326;82;21051;-75
2021/08/28 07:46:03;;;;;;;7.20;6.08;;;;;;;16.20;77.32;97668.75;1724852;82;20997;-75
2021/08/28 07:48:32;;;;;;;8.28;5.97;;;;;;;16.29;76.67;97667.84;1724006;83;21473;-75
2021/08/28 07:50:59;;;;;;;8.68;5.72;;;;;;;16.21;73.50;97657.59;1720096;82;20946;-75
2021/08/28 07:53:26;;;;;;;6.65;5.60;;;;;;;16.17;76.16;97636.87;1726924;82;20966;-74
2021/08/28 07:55:54;;;;;;;7.65;5.35;;;;;;;16.15;76.12;97653.45;1724559;82;21037;-75
2021/08/28 07:58:21;;;;;;;6.95;5.53;;;;;;;16.20;75.84;97645.19;1729008;82;20941;-75
2021/08/28 08:00:47;;;;;;;8.40;5.00;;;;;;;16.22;75.28;97651.29;1741916;82;21043;-75
2021/08/28 08:03:15;;;;;;;8.35;4.85;;;;;;;16.25;74.35;97648.91;1742705;82;20964;-75
2021/08/28 08:06:00;;;;;;;6.85;4.83;;;;;;;16.29;75.42;97650.46;1730983;82;20977;-75
2021/08/28 08:08:29;;;;;;;8.78;5.35;;;;;;;16.40;75.12;97645.33;1639184;85;21438;-75
2021/08/28 08:11:16;;;;;;;8.58;5.10;;;;;;;16.48;75.05;97643.53;1704105;82;21056;-75
2021/08/28 08:13:53;;;;;;;5.62;4.62;;;;;;;16.62;75.23;97636.05;1689630;84;20985;-75
2021/08/28 08:16:38;;;;;;;10.28;5.03;;;;;;;16.73;74.53;97628.22;1709374;83;21036;-75
2021/08/28 08:19:06;;;;;;;8.10;4.97;;;;;;;16.84;74.42;97624.89;1706851;84;21111;-75
2021/08/28 08:21:38;;;;;;;6.97;5.22;;;;;;;16.92;74.08;97624.89;1706117;84;21411;-75
2021/08/28 08:24:06;;;;;;;7.08;5.30;;;;;;;16.98;73.88;97641.44;1693199;82;20989;-75
2021/08/28 08:26:39;;;;;;;6.55;4.80;;;;;;;17.02;71.79;97649.66;1674853;82;21597;-75
2021/08/28 08:29:25;;;;;;;6.03;4.75;;;;;;;17.09;72.66;97642.16;1727012;82;21050;-75
2021/08/28 08:31:53;;;;;;;6.10;4.78;;;;;;;17.20;72.61;97642.83;1721901;83;21445;-75
2021/08/28 08:34:34;;;;;;;7.78;4.75;;;;;;;17.31;72.51;97635.94;1680594;85;21009;-75
2021/08/28 08:37:01;;;;;;;4.90;3.80;;;;;;;17.35;70.90;97645.01;1681083;85;21037;-75
2021/08/28 08:39:27;;;;;;;6.42;4.15;;;;;;;17.40;70.49;97640.22;1657527;85;21040;-75
2021/08/28 08:41:55;;;;;;;6.05;3.98;;;;;;;17.44;71.08;97648.91;1699805;84;21072;-75
2021/08/28 08:44:23;;;;;;;6.62;4.55;;;;;;;17.49;69.07;97653.99;1692869;83;21062;-74
2021/08/28 08:46:52;;;;;;;6.90;5.10;;;;;;;17.37;68.81;97649.80;1717647;82;20977;-74
2021/08/28 08:49:22;;;;;;;8.13;4.72;;;;;;;17.38;70.27;97641.27;1718101;83;21069;-75
2021/08/28 08:51:51;;;;;;;8.38;4.85;;;;;;;17.40;70.37;97646.07;1696576;84;20978;-75
2021/08/28 08:54:21;;;;;;;7.17;4.95;;;;;;;17.40;69.29;97641.55;1683922;83;21025;-75
2021/08/28 08:56:49;;;;;;;7.35;4.70;;;;;;;17.38;70.10;97639.94;1697923;84;21068;-75
2021/08/28 08:59:17;;;;;;;6.00;4.70;;;;;;;17.38;69.65;97634.58;1697783;84;21503;-75
2021/08/28 09:01:46;;;;;;;6.40;4.67;;;;;;;17.38;70.04;97639.94;1697150;84;21057;-75
2021/08/28 09:04:30;;;;;;;6.67;4.55;;;;;;;17.42;70.21;97641.47;1680532;84;21057;-75
2021/08/28 09:06:57;;;;;;;6.30;5.08;;;;;;;17.39;67.77;97637.63;1679594;85;21808;-74
2021/08/28 09:09:24;;;;;;;11.00;6.67;;;;;;;17.44;69.53;97641.38;1680855;85;21013;-74
2021/08/28 09:12:06;;;;;;;6.67;4.95;;;;;;;17.52;69.51;97637.73;1675591;84;21036;-74
2021/08/28 09:14:33;;;;;;;7.92;5.72;;;;;;;17.58;69.29;97630.64;1701632;83;20961;-74
2021/08/28 09:17:18;;;;;;;7.15;5.67;;;;;;;17.65;68.48;97639.98;1692335;83;21486;-75
2021/08/28 09:19:48;;;;;;;7.55;5.75;;;;;;;17.76;69.30;97660.74;1701085;84;21431;-74
2021/08/28 09:22:32;;;;;;;8.00;5.35;;;;;;;17.89;69.03;97657.28;1701591;83;21098;-74
2021/08/28 09:25:06;;;;;;;9.35;5.60;;;;;;;17.98;69.01;97666.03;1729446;82;21076;-73
2021/08/28 09:27:42;;;;;;;8.85;6.08;;;;;;;18.07;69.20;97653.40;1724838;83;21084;-74
2021/08/28 09:30:31;;;;;;;19.05;12.07;;;;;;;18.16;68.81;97649.27;1719579;82;21544;-74
2021/08/28 09:33:06;;;;;;;9.15;4.85;;;;;;;18.21;68.69;97646.27;1705252;83;20995;-75
2021/08/28 09:35:39;;;;;;;6.62;5.08;;;;;;;18.17;67.07;97642.94;1714739;82;21086;-74
2021/08/28 09:38:09;;;;;;;6.85;5.25;;;;;;;18.11;68.26;97641.14;1727567;82;20992;-74
2021/08/28 09:40:47;;;;;;;7.45;5.65;;;;;;;18.05;67.89;97644.58;1730281;82;20969;-74
2021/08/28 09:43:18;;;;;;;6.78;4.75;;;;;;;18.04;68.48;97641.53;1712657;82;21004;-74
2021/08/28 09:45:50;;;;;;;5.80;4.70;;;;;;;18.05;68.24;97629.83;1693429;83;21777;-75
2021/08/28 09:48:21;;;;;;;8.03;5.65;;;;;;;18.01;67.92;97618.05;1710981;83;21023;-75
2021/08/28 09:50:52;;;;;;;11.10;7.90;;;;;;;17.94;66.98;97598.86;1700718;82;21031;-75
2021/08/28 09:53:22;;;;;;;7.37;4.78;;;;;;;17.89;67.74;97605.01;1717529;83;21059;-74
2021/08/28 09:55:59;;;;;;;7.53;4.50;;;;;;;17.81;67.82;97601.00;1711558;83;21037;-74
2021/08/28 09:58:31;;;;;;;7.00;5.08;;;;;;;17.78;68.00;97586.44;1702139;83;21012;-74
2021/08/28 10:01:02;;;;;;;5.62;4.47;;;;;;;17.75;68.17;97589.81;1708225;83;21034;-74
2021/08/28 10:03:32;;;;;;;5.78;4.70;;;;;;;17.79;68.38;97610.09;1697369;84;21032;-75
2021/08/28 10:06:01;;;;;;;16.95;4.97;;;;;;;17.85;68.25;97619.07;1631655;86;21066;-73
2021/08/28 10:08:31;;;;;;;6.37;4.72;;;;;;;17.84;68.60;97629.42;1686032;83;21103;-73
2021/08/28 10:11:00;;;;;;;5.55;4.55;;;;;;;17.86;68.13;97640.89;1705822;83;21105;-75
2021/08/28 10:13:28;;;;;;;7.80;4.67;;;;;;;17.83;68.25;97630.85;1701420;83;21058;-75
2021/08/28 10:15:56;;;;;;;6.83;4.60;;;;;;;17.87;68.01;97624.34;1696962;83;20995;-75
2021/08/28 10:18:23;;;;;;;6.25;4.45;;;;;;;17.83;67.41;97616.98;1701196;82;21042;-76
2021/08/28 10:20:52;;;;;;;6.97;5.05;;;;;;;17.84;67.72;97605.30;1690088;83;20969;-74
2021/08/28 10:23:22;;;;;;;7.50;4.20;;;;;;;17.85;67.70;97589.58;1678698;84;21506;-73
2021/08/28 10:25:50;;;;;;;8.18;4.58;;;;;;;17.84;67.40;97589.21;1660083;86;21465;-74
2021/08/28 10:28:19;;;;;;;6.22;4.87;;;;;;;17.85;67.83;97588.74;1674297;86;20996;-74
2021/08/28 10:30:47;;;;;;;7.95;4.47;;;;;;;17.83;66.90;97580.80;1679514;84;21021;-73
2021/08/28 10:33:14;;;;;;;9.15;4.53;;;;;;;17.91;67.79;97588.33;1710819;83;21033;-74
2021/08/28 10:35:40;;;;;;;8.30;5.12;;;;;;;18.00;67.65;97574.78;1685654;84;21348;-74
2021/08/28 10:38:07;;;;;;;11.88;5.33;;;;;;;18.10;67.77;97582.62;1649181;86;21019;-74
2021/08/28 10:40:35;;;;;;;7.05;4.85;;;;;;;18.22;67.67;97589.48;1675230;85;21029;-74
2021/08/28 10:43:09;;;;;;;6.47;4.65;;;;;;;18.32;67.23;97587.39;1679787;85;21028;-74
2021/08/28 10:45:40;;;;;;;5.57;3.67;;;;;;;18.38;66.73;97591.95;1680026;85;21083;-74
2021/08/28 10:48:26;;;;;;;5.42;4.10;;;;;;;18.39;66.54;97596.38;1679836;85;21036;-74
2021/08/28 10:50:52;;;;;;;5.87;4.10;;;;;;;18.37;64.74;97592.92;1656753;85;20980;-74
2021/08/28 10:53:20;;;;;;;6.25;4.47;;;;;;;18.42;66.07;97582.73;1649363;87;21016;-74
2021/08/28 10:55:49;;;;;;;5.75;3.95;;;;;;;18.44;64.39;97592.40;1677115;85;21052;-74
2021/08/28 10:58:20;;;;;;;8.33;5.22;;;;;;;18.47;64.83;97599.38;1695825;85;21013;-76
2021/08/28 11:00:49;;;;;;;5.40;4.05;;;;;;;18.51;65.67;97595.53;1699981;83;21464;-76
2021/08/28 11:03:35;;;;;;;6.45;4.40;;;;;;;18.54;63.23;97595.80;1695774;85;21034;-76
2021/08/28 11:06:19;;;;;;;5.45;3.55;;;;;;;18.53;65.25;97603.01;1692403;85;21076;-75
2021/08/28 11:09:00;;;;;;;4.80;3.35;;;;;;;18.53;65.13;97603.01;1708332;83;21449;-76
2021/08/28 11:11:38;;;;;;;5.65;3.98;;;;;;;18.51;65.27;97604.91;1696589;85;22118;-76
2021/08/28 11:14:11;;;;;;;5.83;3.85;;;;;;;18.49;65.08;97602.84;1685954;84;21044;-75
2021/08/28 11:16:46;;;;;;;5.00;3.60;;;;;;;18.45;64.95;97610.24;1685220;85;21474;-76
2021/08/28 11:19:27;;;;;;;5.03;3.52;;;;;;;18.42;65.13;97605.55;1685659;85;21017;-76
2021/08/28 11:21:54;;;;;;;7.72;3.67;;;;;;;18.40;65.28;97608.33;1706671;84;21075;-76
2021/08/28 11:24:23;;;;;;;4.30;3.20;;;;;;;18.45;65.39;97600.85;1724469;82;21473;-76
2021/08/28 11:26:57;;;;;;;6.87;3.95;;;;;;;18.47;65.07;97598.91;1675802;85;21041;-76
2021/08/28 11:29:32;;;;;;;6.20;3.80;;;;;;;18.49;65.30;97596.12;1724820;82;21004;-76
2021/08/28 11:32:22;;;;;;;5.40;3.65;;;;;;;18.55;65.40;97597.04;1705407;84;21019;-76
2021/08/28 11:34:56;;;;;;;4.62;3.40;;;;;;;18.57;65.32;97599.63;1706537;84;21000;-76
2021/08/28 11:37:36;;;;;;;4.58;3.50;;;;;;;18.58;65.41;97594.63;1706616;84;21012;-76
2021/08/28 11:40:28;;;;;;;5.60;3.80;;;;;;;18.59;66.00;97585.60;1706319;84;21079;-76
2021/08/28 11:42:55;;;;;;;6.50;3.90;;;;;;;18.67;66.54;97588.62;1706499;84;21047;-76
2021/08/28 11:45:30;;;;;;;4.50;3.55;;;;;;;18.75;66.34;97580.03;1706478;84;21023;-76
2021/08/28 11:47:56;;;;;;;4.22;3.65;;;;;;;18.80;66.20;97570.30;1704833;84;21024;-75